sensor_id;sensor_type;location;lat;lon;timestamp;temperature;humidity
14798;DHT22;7490;63.708;20.368;2022-09-09T00:21:35;9.80;84.50
14798;DHT22;7490;63.708;20.368;2022-09-09T00:24:14;9.90;84.50
14798;DHT22;7490;63.708;20.368;2022-09-09T00:26:47;10.00;84.60
14798;DHT22;7490;63.708;20.368;2022-09-09T00:29:33;10.00;84.70
14798;DHT22;7490;63.708;20.368;2022-09-09T00:32:13;10.10;85.00
14798;DHT22;7490;63.708;20.368;2022-09-09T00:34:51;10.20;84.90
14798;DHT22;7490;63.708;20.368;2022-09-09T00:37:19;10.20;84.80
14798;DHT22;7490;63.708;20.368;2022-09-09T00:39:47;10.30;84.70
14798;DHT22;7490;63.708;20.368;2022-09-09T00:42:20;10.40;84.70
14798;DHT22;7490;63.708;20.368;2022-09-09T00:52:57;10.60;85.00
14798;DHT22;7490;63.708;20.368;2022-09-09T00:55:41;10.70;85.00
14798;DHT22;7490;63.708;20.368;2022-09-09T00:58:10;10.70;84.90
14798;DHT22;7490;63.708;20.368;2022-09-09T01:00:51;10.80;84.90
14798;DHT22;7490;63.708;20.368;2022-09-09T01:06:32;10.90;85.00
14798;DHT22;7490;63.708;20.368;2022-09-09T01:11:58;11.10;84.90
14798;DHT22;7490;63.708;20.368;2022-09-09T01:17:22;11.20;84.80
14798;DHT22;7490;63.708;20.368;2022-09-09T01:28:21;11.30;84.80
14798;DHT22;7490;63.708;20.368;2022-09-09T01:30:49;11.30;84.70
14798;DHT22;7490;63.708;20.368;2022-09-09T01:33:17;11.40;84.60
14798;DHT22;7490;63.708;20.368;2022-09-09T01:35:57;11.40;84.70
14798;DHT22;7490;63.708;20.368;2022-09-09T01:38:26;11.50;84.90
14798;DHT22;7490;63.708;20.368;2022-09-09T01:40:53;11.50;85.40
14798;DHT22;7490;63.708;20.368;2022-09-09T01:43:20;11.50;84.70
14798;DHT22;7490;63.708;20.368;2022-09-09T01:45:49;11.60;84.70
14798;DHT22;7490;63.708;20.368;2022-09-09T01:48:17;11.60;84.70
14798;DHT22;7490;63.708;20.368;2022-09-09T01:50:43;11.60;84.70
14798;DHT22;7490;63.708;20.368;2022-09-09T01:53:09;11.70;84.70
14798;DHT22;7490;63.708;20.368;2022-09-09T01:55:42;11.70;84.60
14798;DHT22;7490;63.708;20.368;2022-09-09T01:58:28;11.70;84.60
14798;DHT22;7490;63.708;20.368;2022-09-09T02:03:38;11.80;84.70
14798;DHT22;7490;63.708;20.368;2022-09-09T02:08:46;11.80;84.40
14798;DHT22;7490;63.708;20.368;2022-09-09T02:11:17;11.80;84.60
14798;DHT22;7490;63.708;20.368;2022-09-09T02:13:48;11.90;84.60
14798;DHT22;7490;63.708;20.368;2022-09-09T02:16:32;11.90;84.60
14798;DHT22;7490;63.708;20.368;2022-09-09T02:19:18;11.90;84.60
14798;DHT22;7490;63.708;20.368;2022-09-09T02:21:52;12.00;84.50
14798;DHT22;7490;63.708;20.368;2022-09-09T02:24:20;12.00;84.50
14798;DHT22;7490;63.708;20.368;2022-09-09T02:26:49;12.00;84.50
14798;DHT22;7490;63.708;20.368;2022-09-09T02:29:40;12.00;84.50
14798;DHT22;7490;63.708;20.368;2022-09-09T02:32:22;12.00;84.60
14798;DHT22;7490;63.708;20.368;2022-09-09T02:34:57;12.10;84.60
14798;DHT22;7490;63.708;20.368;2022-09-09T02:37:31;12.10;84.50
14798;DHT22;7490;63.708;20.368;2022-09-09T02:39:57;12.20;84.60
14798;DHT22;7490;63.708;20.368;2022-09-09T02:42:23;12.20;84.50
14798;DHT22;7490;63.708;20.368;2022-09-09T02:44:49;12.20;84.50
14798;DHT22;7490;63.708;20.368;2022-09-09T02:52:42;12.30;84.50
14798;DHT22;7490;63.708;20.368;2022-09-09T02:57:57;12.30;84.50
14798;DHT22;7490;63.708;20.368;2022-09-09T03:00:26;12.40;84.40
14798;DHT22;7490;63.708;20.368;2022-09-09T03:02:53;12.40;84.30
14798;DHT22;7490;63.708;20.368;2022-09-09T03:05:20;12.40;84.30
14798;DHT22;7490;63.708;20.368;2022-09-09T03:07:46;12.40;84.40
14798;DHT22;7490;63.708;20.368;2022-09-09T03:10:12;12.40;84.40
14798;DHT22;7490;63.708;20.368;2022-09-09T03:12:39;12.50;84.50
14798;DHT22;7490;63.708;20.368;2022-09-09T03:15:06;12.50;84.50
14798;DHT22;7490;63.708;20.368;2022-09-09T03:17:31;12.50;84.50
14798;DHT22;7490;63.708;20.368;2022-09-09T03:19:57;12.50;84.60
14798;DHT22;7490;63.708;20.368;2022-09-09T03:22:24;12.50;84.60
14798;DHT22;7490;63.708;20.368;2022-09-09T03:24:51;12.50;84.60
14798;DHT22;7490;63.708;20.368;2022-09-09T03:27:17;12.50;84.60
14798;DHT22;7490;63.708;20.368;2022-09-09T03:29:44;12.50;84.80
14798;DHT22;7490;63.708;20.368;2022-09-09T03:32:10;12.60;84.90
14798;DHT22;7490;63.708;20.368;2022-09-09T03:34:36;12.60;85.00
14798;DHT22;7490;63.708;20.368;2022-09-09T03:37:04;12.60;85.00
14798;DHT22;7490;63.708;20.368;2022-09-09T03:39:31;12.60;85.10
14798;DHT22;7490;63.708;20.368;2022-09-09T03:41:56;12.60;85.10
14798;DHT22;7490;63.708;20.368;2022-09-09T03:44:22;12.70;85.20
14798;DHT22;7490;63.708;20.368;2022-09-09T03:46:48;12.70;85.20
14798;DHT22;7490;63.708;20.368;2022-09-09T03:49:13;12.70;85.20
14798;DHT22;7490;63.708;20.368;2022-09-09T03:51:40;12.80;85.20
14798;DHT22;7490;63.708;20.368;2022-09-09T03:54:07;12.80;85.20
14798;DHT22;7490;63.708;20.368;2022-09-09T03:56:34;12.90;85.30
14798;DHT22;7490;63.708;20.368;2022-09-09T03:59:00;12.90;85.20
14798;DHT22;7490;63.708;20.368;2022-09-09T04:01:27;12.90;85.30
14798;DHT22;7490;63.708;20.368;2022-09-09T04:03:53;12.90;85.30
14798;DHT22;7490;63.708;20.368;2022-09-09T04:06:20;13.00;85.40
14798;DHT22;7490;63.708;20.368;2022-09-09T04:08:46;13.00;85.40
14798;DHT22;7490;63.708;20.368;2022-09-09T04:11:14;13.00;85.50
14798;DHT22;7490;63.708;20.368;2022-09-09T04:13:41;13.00;85.50
14798;DHT22;7490;63.708;20.368;2022-09-09T04:16:08;13.10;85.50
14798;DHT22;7490;63.708;20.368;2022-09-09T04:18:35;13.10;85.40
14798;DHT22;7490;63.708;20.368;2022-09-09T04:21:00;13.10;85.30
14798;DHT22;7490;63.708;20.368;2022-09-09T04:23:27;13.20;85.20
14798;DHT22;7490;63.708;20.368;2022-09-09T04:25:57;13.30;85.10
14798;DHT22;7490;63.708;20.368;2022-09-09T04:28:25;13.30;84.90
14798;DHT22;7490;63.708;20.368;2022-09-09T04:30:51;13.40;84.70
14798;DHT22;7490;63.708;20.368;2022-09-09T04:33:18;13.40;84.50
14798;DHT22;7490;63.708;20.368;2022-09-09T04:35:46;13.50;84.40
14798;DHT22;7490;63.708;20.368;2022-09-09T04:38:13;13.60;84.30
14798;DHT22;7490;63.708;20.368;2022-09-09T04:40:41;13.60;84.10
14798;DHT22;7490;63.708;20.368;2022-09-09T04:43:09;13.70;84.00
14798;DHT22;7490;63.708;20.368;2022-09-09T04:45:35;13.80;83.80
14798;DHT22;7490;63.708;20.368;2022-09-09T04:48:01;13.80;83.70
14798;DHT22;7490;63.708;20.368;2022-09-09T04:50:27;13.90;83.60
14798;DHT22;7490;63.708;20.368;2022-09-09T04:52:54;13.90;83.50
14798;DHT22;7490;63.708;20.368;2022-09-09T04:55:19;14.00;83.50
14798;DHT22;7490;63.708;20.368;2022-09-09T04:57:45;14.00;83.40
14798;DHT22;7490;63.708;20.368;2022-09-09T05:00:12;14.00;83.30
14798;DHT22;7490;63.708;20.368;2022-09-09T05:02:39;14.10;83.30
14798;DHT22;7490;63.708;20.368;2022-09-09T05:05:05;14.10;83.10
14798;DHT22;7490;63.708;20.368;2022-09-09T05:07:31;14.20;83.00
14798;DHT22;7490;63.708;20.368;2022-09-09T05:09:57;14.20;82.80
14798;DHT22;7490;63.708;20.368;2022-09-09T05:12:24;14.30;82.60
14798;DHT22;7490;63.708;20.368;2022-09-09T05:14:51;14.40;82.50
14798;DHT22;7490;63.708;20.368;2022-09-09T05:17:17;14.40;82.30
14798;DHT22;7490;63.708;20.368;2022-09-09T05:19:43;14.50;82.20
14798;DHT22;7490;63.708;20.368;2022-09-09T05:22:09;14.60;82.20
14798;DHT22;7490;63.708;20.368;2022-09-09T05:24:36;14.60;82.10
14798;DHT22;7490;63.708;20.368;2022-09-09T05:27:02;14.70;82.00
14798;DHT22;7490;63.708;20.368;2022-09-09T05:29:28;14.80;81.90
14798;DHT22;7490;63.708;20.368;2022-09-09T05:31:54;14.80;81.80
14798;DHT22;7490;63.708;20.368;2022-09-09T05:34:19;14.90;82.60
14798;DHT22;7490;63.708;20.368;2022-09-09T05:36:46;15.00;81.70
14798;DHT22;7490;63.708;20.368;2022-09-09T05:39:12;15.00;81.70
14798;DHT22;7490;63.708;20.368;2022-09-09T05:41:38;15.00;81.50
14798;DHT22;7490;63.708;20.368;2022-09-09T05:44:04;15.10;81.50
14798;DHT22;7490;63.708;20.368;2022-09-09T05:46:31;15.10;81.50
14798;DHT22;7490;63.708;20.368;2022-09-09T05:48:56;15.10;81.40
14798;DHT22;7490;63.708;20.368;2022-09-09T05:51:26;15.20;81.30
14798;DHT22;7490;63.708;20.368;2022-09-09T05:53:52;15.20;81.20
14798;DHT22;7490;63.708;20.368;2022-09-09T05:56:22;15.30;81.10
14798;DHT22;7490;63.708;20.368;2022-09-09T05:58:50;15.30;80.90
14798;DHT22;7490;63.708;20.368;2022-09-09T06:01:19;15.30;80.70
14798;DHT22;7490;63.708;20.368;2022-09-09T06:03:46;15.40;80.70
14798;DHT22;7490;63.708;20.368;2022-09-09T06:06:17;15.40;80.50
14798;DHT22;7490;63.708;20.368;2022-09-09T06:08:44;15.50;80.30
14798;DHT22;7490;63.708;20.368;2022-09-09T06:11:19;15.60;80.20
14798;DHT22;7490;63.708;20.368;2022-09-09T06:13:45;15.60;79.90
14798;DHT22;7490;63.708;20.368;2022-09-09T06:16:17;15.70;79.70
14798;DHT22;7490;63.708;20.368;2022-09-09T06:18:44;15.80;79.50
14798;DHT22;7490;63.708;20.368;2022-09-09T06:23:40;16.00;79.10
14798;DHT22;7490;63.708;20.368;2022-09-09T06:26:12;16.00;78.90
14798;DHT22;7490;63.708;20.368;2022-09-09T06:28:38;16.10;78.70
14798;DHT22;7490;63.708;20.368;2022-09-09T06:31:09;16.20;78.40
14798;DHT22;7490;63.708;20.368;2022-09-09T06:33:39;16.20;78.00
14798;DHT22;7490;63.708;20.368;2022-09-09T06:36:10;16.30;77.70
14798;DHT22;7490;63.708;20.368;2022-09-09T06:38:36;16.30;77.50
14798;DHT22;7490;63.708;20.368;2022-09-09T06:41:02;16.40;77.30
14798;DHT22;7490;63.708;20.368;2022-09-09T06:43:28;16.40;77.10
14798;DHT22;7490;63.708;20.368;2022-09-09T06:45:59;16.50;76.80
14798;DHT22;7490;63.708;20.368;2022-09-09T06:48:26;16.50;76.30
14798;DHT22;7490;63.708;20.368;2022-09-09T06:51:07;16.50;76.10
14798;DHT22;7490;63.708;20.368;2022-09-09T06:53:35;16.60;76.00
14798;DHT22;7490;63.708;20.368;2022-09-09T06:58:50;16.70;75.60
14798;DHT22;7490;63.708;20.368;2022-09-09T07:01:19;16.80;75.40
14798;DHT22;7490;63.708;20.368;2022-09-09T07:03:47;16.90;75.30
14798;DHT22;7490;63.708;20.368;2022-09-09T07:06:15;16.90;75.00
14798;DHT22;7490;63.708;20.368;2022-09-09T07:08:49;17.00;75.10
14798;DHT22;7490;63.708;20.368;2022-09-09T07:11:15;17.00;75.00
14798;DHT22;7490;63.708;20.368;2022-09-09T07:13:41;17.10;74.80
14798;DHT22;7490;63.708;20.368;2022-09-09T07:16:12;17.10;74.60
14798;DHT22;7490;63.708;20.368;2022-09-09T07:18:39;17.10;74.50
14798;DHT22;7490;63.708;20.368;2022-09-09T07:21:05;17.20;75.60
14798;DHT22;7490;63.708;20.368;2022-09-09T07:23:32;17.30;74.80
14798;DHT22;7490;63.708;20.368;2022-09-09T07:25:58;17.40;74.50
14798;DHT22;7490;63.708;20.368;2022-09-09T07:28:24;17.40;74.10
14798;DHT22;7490;63.708;20.368;2022-09-09T07:30:58;17.50;74.00
14798;DHT22;7490;63.708;20.368;2022-09-09T07:33:25;17.50;73.60
14798;DHT22;7490;63.708;20.368;2022-09-09T07:35:52;17.60;73.50
14798;DHT22;7490;63.708;20.368;2022-09-09T07:38:19;17.60;73.40
14798;DHT22;7490;63.708;20.368;2022-09-09T07:40:46;17.60;73.40
14798;DHT22;7490;63.708;20.368;2022-09-09T07:43:11;17.60;73.50
14798;DHT22;7490;63.708;20.368;2022-09-09T07:45:37;17.70;74.40
14798;DHT22;7490;63.708;20.368;2022-09-09T07:48:03;17.80;73.40
14798;DHT22;7490;63.708;20.368;2022-09-09T07:50:29;17.90;73.00
14798;DHT22;7490;63.708;20.368;2022-09-09T07:52:55;18.00;72.50
14798;DHT22;7490;63.708;20.368;2022-09-09T07:55:22;18.10;72.20
14798;DHT22;7490;63.708;20.368;2022-09-09T07:57:52;18.10;71.40
14798;DHT22;7490;63.708;20.368;2022-09-09T08:00:18;18.10;70.60
14798;DHT22;7490;63.708;20.368;2022-09-09T08:02:45;18.10;70.50
14798;DHT22;7490;63.708;20.368;2022-09-09T08:05:12;18.20;70.40
14798;DHT22;7490;63.708;20.368;2022-09-09T08:07:38;18.20;70.00
14798;DHT22;7490;63.708;20.368;2022-09-09T08:10:04;18.20;69.70
14798;DHT22;7490;63.708;20.368;2022-09-09T08:12:31;18.30;69.60
14798;DHT22;7490;63.708;20.368;2022-09-09T08:14:57;18.30;69.30
14798;DHT22;7490;63.708;20.368;2022-09-09T08:17:23;18.40;68.70
14798;DHT22;7490;63.708;20.368;2022-09-09T08:19:49;18.30;68.40
14798;DHT22;7490;63.708;20.368;2022-09-09T08:22:14;18.30;68.30
14798;DHT22;7490;63.708;20.368;2022-09-09T08:24:40;18.30;68.20
14798;DHT22;7490;63.708;20.368;2022-09-09T08:27:06;18.30;67.70
14798;DHT22;7490;63.708;20.368;2022-09-09T08:29:31;18.30;67.50
14798;DHT22;7490;63.708;20.368;2022-09-09T08:31:57;18.30;67.40
14798;DHT22;7490;63.708;20.368;2022-09-09T08:34:25;18.30;67.60
14798;DHT22;7490;63.708;20.368;2022-09-09T08:36:52;18.30;67.60
14798;DHT22;7490;63.708;20.368;2022-09-09T08:39:20;18.40;67.40
14798;DHT22;7490;63.708;20.368;2022-09-09T08:50:19;18.50;66.60
14798;DHT22;7490;63.708;20.368;2022-09-09T08:53:16;18.60;66.80
14798;DHT22;7490;63.708;20.368;2022-09-09T08:55:47;18.60;66.50
14798;DHT22;7490;63.708;20.368;2022-09-09T08:58:28;18.70;66.40
14798;DHT22;7490;63.708;20.368;2022-09-09T09:09:21;19.20;65.10
14798;DHT22;7490;63.708;20.368;2022-09-09T09:11:51;19.20;64.50
14798;DHT22;7490;63.708;20.368;2022-09-09T09:14:24;19.30;64.30
14798;DHT22;7490;63.708;20.368;2022-09-09T09:16:55;19.20;63.70
14798;DHT22;7490;63.708;20.368;2022-09-09T09:19:22;19.10;63.90
14798;DHT22;7490;63.708;20.368;2022-09-09T09:27:16;19.00;63.90
14798;DHT22;7490;63.708;20.368;2022-09-09T09:29:44;18.90;64.20
14798;DHT22;7490;63.708;20.368;2022-09-09T09:32:14;18.90;64.30
14798;DHT22;7490;63.708;20.368;2022-09-09T09:34:41;18.90;64.20
14798;DHT22;7490;63.708;20.368;2022-09-09T09:37:17;18.90;64.50
14798;DHT22;7490;63.708;20.368;2022-09-09T09:39:49;19.00;64.40
14798;DHT22;7490;63.708;20.368;2022-09-09T09:42:17;19.00;64.20
14798;DHT22;7490;63.708;20.368;2022-09-09T09:44:43;19.00;64.20
14798;DHT22;7490;63.708;20.368;2022-09-09T09:47:13;19.00;63.90
14798;DHT22;7490;63.708;20.368;2022-09-09T09:49:54;19.00;63.80
14798;DHT22;7490;63.708;20.368;2022-09-09T09:52:25;19.00;63.80
14798;DHT22;7490;63.708;20.368;2022-09-09T09:54:53;19.00;63.80
14798;DHT22;7490;63.708;20.368;2022-09-09T09:57:26;19.00;63.90
14798;DHT22;7490;63.708;20.368;2022-09-09T10:00:18;19.00;63.70
14798;DHT22;7490;63.708;20.368;2022-09-09T10:02:46;19.00;63.50
14798;DHT22;7490;63.708;20.368;2022-09-09T10:07:43;18.80;63.70
14798;DHT22;7490;63.708;20.368;2022-09-09T10:13:13;18.80;63.70
14798;DHT22;7490;63.708;20.368;2022-09-09T10:16:02;18.70;63.80
14798;DHT22;7490;63.708;20.368;2022-09-09T10:19:13;18.70;64.20
14798;DHT22;7490;63.708;20.368;2022-09-09T10:30:09;18.60;64.10
14798;DHT22;7490;63.708;20.368;2022-09-09T10:32:50;18.50;64.30
14798;DHT22;7490;63.708;20.368;2022-09-09T10:38:14;18.50;64.60
14798;DHT22;7490;63.708;20.368;2022-09-09T10:48:35;18.70;64.70
14798;DHT22;7490;63.708;20.368;2022-09-09T10:51:23;18.80;64.20
14798;DHT22;7490;63.708;20.368;2022-09-09T10:56:38;18.90;63.60
14798;DHT22;7490;63.708;20.368;2022-09-09T10:59:12;18.90;63.60
14798;DHT22;7490;63.708;20.368;2022-09-09T11:02:26;19.00;63.60
14798;DHT22;7490;63.708;20.368;2022-09-09T11:05:05;19.00;63.30
14798;DHT22;7490;63.708;20.368;2022-09-09T11:07:40;19.00;63.30
14798;DHT22;7490;63.708;20.368;2022-09-09T11:10:24;19.00;63.30
14798;DHT22;7490;63.708;20.368;2022-09-09T11:12:59;19.00;63.10
14798;DHT22;7490;63.708;20.368;2022-09-09T11:15:38;19.00;63.30
14798;DHT22;7490;63.708;20.368;2022-09-09T11:18:08;19.10;63.20
14798;DHT22;7490;63.708;20.368;2022-09-09T11:20:37;19.10;63.10
14798;DHT22;7490;63.708;20.368;2022-09-09T11:23:13;19.00;62.80
14798;DHT22;7490;63.708;20.368;2022-09-09T11:25:50;19.00;63.20
14798;DHT22;7490;63.708;20.368;2022-09-09T11:28:28;19.00;63.30
14798;DHT22;7490;63.708;20.368;2022-09-09T11:44:33;19.10;62.70
14798;DHT22;7490;63.708;20.368;2022-09-09T11:46:59;19.10;62.80
14798;DHT22;7490;63.708;20.368;2022-09-09T11:49:41;19.00;63.00
14798;DHT22;7490;63.708;20.368;2022-09-09T11:53:02;19.00;63.20
14798;DHT22;7490;63.708;20.368;2022-09-09T11:54:57;19.00;63.10
14798;DHT22;7490;63.708;20.368;2022-09-09T11:59:54;19.00;63.10
14798;DHT22;7490;63.708;20.368;2022-09-09T12:02:28;19.00;63.10
14798;DHT22;7490;63.708;20.368;2022-09-09T12:05:08;18.90;63.00
14798;DHT22;7490;63.708;20.368;2022-09-09T12:12:35;19.00;63.70
14798;DHT22;7490;63.708;20.368;2022-09-09T12:17:47;19.10;64.20
14798;DHT22;7490;63.708;20.368;2022-09-09T12:20:21;19.10;62.80
14798;DHT22;7490;63.708;20.368;2022-09-09T12:28:18;19.10;62.40
14798;DHT22;7490;63.708;20.368;2022-09-09T12:33:38;19.00;62.20
14798;DHT22;7490;63.708;20.368;2022-09-09T12:36:15;18.90;62.00
14798;DHT22;7490;63.708;20.368;2022-09-09T12:38:42;18.80;62.00
14798;DHT22;7490;63.708;20.368;2022-09-09T12:41:22;18.60;62.10
14798;DHT22;7490;63.708;20.368;2022-09-09T12:43:49;18.40;62.30
14798;DHT22;7490;63.708;20.368;2022-09-09T12:46:40;18.30;62.80
14798;DHT22;7490;63.708;20.368;2022-09-09T12:49:30;18.20;63.20
14798;DHT22;7490;63.708;20.368;2022-09-09T12:52:46;18.10;63.60
14798;DHT22;7490;63.708;20.368;2022-09-09T12:54:47;18.00;63.70
14798;DHT22;7490;63.708;20.368;2022-09-09T12:57:13;18.00;63.90
14798;DHT22;7490;63.708;20.368;2022-09-09T12:59:42;17.90;63.80
14798;DHT22;7490;63.708;20.368;2022-09-09T13:02:25;17.90;64.00
14798;DHT22;7490;63.708;20.368;2022-09-09T13:04:52;17.80;64.20
14798;DHT22;7490;63.708;20.368;2022-09-09T13:07:18;17.90;65.30
14798;DHT22;7490;63.708;20.368;2022-09-09T13:09:45;17.80;64.80
14798;DHT22;7490;63.708;20.368;2022-09-09T13:12:23;17.80;65.20
14798;DHT22;7490;63.708;20.368;2022-09-09T13:14:53;17.80;65.30
14798;DHT22;7490;63.708;20.368;2022-09-09T13:17:25;17.80;65.50
14798;DHT22;7490;63.708;20.368;2022-09-09T13:19:52;17.80;65.50
14798;DHT22;7490;63.708;20.368;2022-09-09T13:22:30;17.80;65.60
14798;DHT22;7490;63.708;20.368;2022-09-09T13:27:38;17.80;65.70
14798;DHT22;7490;63.708;20.368;2022-09-09T13:30:40;17.80;65.50
14798;DHT22;7490;63.708;20.368;2022-09-09T13:35:56;17.70;65.70
14798;DHT22;7490;63.708;20.368;2022-09-09T13:38:22;17.70;65.90
14798;DHT22;7490;63.708;20.368;2022-09-09T13:41:02;17.70;65.80
14798;DHT22;7490;63.708;20.368;2022-09-09T13:43:33;17.70;65.80
14798;DHT22;7490;63.708;20.368;2022-09-09T13:46:05;17.70;65.60
14798;DHT22;7490;63.708;20.368;2022-09-09T13:48:31;17.60;65.70
14798;DHT22;7490;63.708;20.368;2022-09-09T13:51:02;17.60;65.70
14798;DHT22;7490;63.708;20.368;2022-09-09T13:53:30;17.60;65.70
14798;DHT22;7490;63.708;20.368;2022-09-09T13:55:56;17.60;65.70
14798;DHT22;7490;63.708;20.368;2022-09-09T13:58:23;17.60;65.60
14798;DHT22;7490;63.708;20.368;2022-09-09T14:00:51;17.60;65.50
14798;DHT22;7490;63.708;20.368;2022-09-09T14:03:17;17.60;65.70
14798;DHT22;7490;63.708;20.368;2022-09-09T14:05:44;17.60;65.80
14798;DHT22;7490;63.708;20.368;2022-09-09T14:08:16;17.60;65.60
14798;DHT22;7490;63.708;20.368;2022-09-09T14:10:46;17.50;65.50
14798;DHT22;7490;63.708;20.368;2022-09-09T14:13:11;17.50;65.60
14798;DHT22;7490;63.708;20.368;2022-09-09T14:15:38;17.40;65.30
14798;DHT22;7490;63.708;20.368;2022-09-09T14:18:03;17.40;65.20
14798;DHT22;7490;63.708;20.368;2022-09-09T14:20:29;17.30;65.40
14798;DHT22;7490;63.708;20.368;2022-09-09T14:22:55;17.30;65.60
14798;DHT22;7490;63.708;20.368;2022-09-09T14:25:23;17.20;65.50
14798;DHT22;7490;63.708;20.368;2022-09-09T14:27:48;17.20;65.40
14798;DHT22;7490;63.708;20.368;2022-09-09T14:30:16;17.20;65.20
14798;DHT22;7490;63.708;20.368;2022-09-09T14:32:42;17.10;65.30
14798;DHT22;7490;63.708;20.368;2022-09-09T14:35:08;17.10;65.50
14798;DHT22;7490;63.708;20.368;2022-09-09T14:37:34;17.10;65.30
14798;DHT22;7490;63.708;20.368;2022-09-09T14:40:00;17.00;66.00
14798;DHT22;7490;63.708;20.368;2022-09-09T14:42:26;17.00;65.20
14798;DHT22;7490;63.708;20.368;2022-09-09T14:44:52;17.00;65.30
14798;DHT22;7490;63.708;20.368;2022-09-09T14:47:17;17.00;65.40
14798;DHT22;7490;63.708;20.368;2022-09-09T14:49:43;16.90;65.60
14798;DHT22;7490;63.708;20.368;2022-09-09T14:52:10;16.90;65.90
14798;DHT22;7490;63.708;20.368;2022-09-09T14:54:35;16.90;66.20
14798;DHT22;7490;63.708;20.368;2022-09-09T14:57:01;16.80;66.10
14798;DHT22;7490;63.708;20.368;2022-09-09T14:59:27;16.90;66.20
14798;DHT22;7490;63.708;20.368;2022-09-09T15:01:54;16.80;66.20
14798;DHT22;7490;63.708;20.368;2022-09-09T15:04:19;16.80;66.40
14798;DHT22;7490;63.708;20.368;2022-09-09T15:06:45;16.70;66.40
14798;DHT22;7490;63.708;20.368;2022-09-09T15:09:14;16.70;66.50
14798;DHT22;7490;63.708;20.368;2022-09-09T15:11:40;16.70;66.60
14798;DHT22;7490;63.708;20.368;2022-09-09T15:14:07;16.70;66.70
14798;DHT22;7490;63.708;20.368;2022-09-09T15:16:34;16.60;66.90
14798;DHT22;7490;63.708;20.368;2022-09-09T15:19:01;16.60;67.00
14798;DHT22;7490;63.708;20.368;2022-09-09T15:21:29;16.60;67.20
14798;DHT22;7490;63.708;20.368;2022-09-09T15:23:56;16.60;67.30
14798;DHT22;7490;63.708;20.368;2022-09-09T15:26:23;16.50;67.50
14798;DHT22;7490;63.708;20.368;2022-09-09T15:28:49;16.50;67.80
14798;DHT22;7490;63.708;20.368;2022-09-09T15:31:21;16.50;68.00
14798;DHT22;7490;63.708;20.368;2022-09-09T15:33:54;16.40;68.10
14798;DHT22;7490;63.708;20.368;2022-09-09T15:36:31;16.40;68.30
14798;DHT22;7490;63.708;20.368;2022-09-09T15:39:01;16.40;68.40
14798;DHT22;7490;63.708;20.368;2022-09-09T15:41:27;16.40;68.50
14798;DHT22;7490;63.708;20.368;2022-09-09T15:43:55;16.40;68.70
14798;DHT22;7490;63.708;20.368;2022-09-09T15:46:28;16.30;68.80
14798;DHT22;7490;63.708;20.368;2022-09-09T15:49:08;16.30;69.00
14798;DHT22;7490;63.708;20.368;2022-09-09T15:51:34;16.20;69.00
14798;DHT22;7490;63.708;20.368;2022-09-09T15:54:00;16.20;69.10
14798;DHT22;7490;63.708;20.368;2022-09-09T15:56:28;16.20;69.20
14798;DHT22;7490;63.708;20.368;2022-09-09T15:58:56;16.20;69.40
14798;DHT22;7490;63.708;20.368;2022-09-09T16:01:23;16.10;69.50
14798;DHT22;7490;63.708;20.368;2022-09-09T16:03:49;16.10;69.80
14798;DHT22;7490;63.708;20.368;2022-09-09T16:06:19;16.10;69.90
14798;DHT22;7490;63.708;20.368;2022-09-09T16:08:48;16.10;70.20
14798;DHT22;7490;63.708;20.368;2022-09-09T16:11:36;16.00;70.30
14798;DHT22;7490;63.708;20.368;2022-09-09T16:14:03;16.00;70.90
14798;DHT22;7490;63.708;20.368;2022-09-09T16:16:29;15.90;70.80
14798;DHT22;7490;63.708;20.368;2022-09-09T16:18:57;15.90;71.10
14798;DHT22;7490;63.708;20.368;2022-09-09T16:21:29;15.90;71.40
14798;DHT22;7490;63.708;20.368;2022-09-09T16:23:57;15.80;71.60
14798;DHT22;7490;63.708;20.368;2022-09-09T16:26:24;15.80;71.80
14798;DHT22;7490;63.708;20.368;2022-09-09T16:28:50;15.80;72.00
14798;DHT22;7490;63.708;20.368;2022-09-09T16:31:24;15.70;72.10
14798;DHT22;7490;63.708;20.368;2022-09-09T16:33:49;15.70;72.40
14798;DHT22;7490;63.708;20.368;2022-09-09T16:36:21;15.70;72.50
14798;DHT22;7490;63.708;20.368;2022-09-09T16:38:47;15.60;72.70
14798;DHT22;7490;63.708;20.368;2022-09-09T16:41:14;15.60;72.90
14798;DHT22;7490;63.708;20.368;2022-09-09T16:43:40;15.50;73.00
14798;DHT22;7490;63.708;20.368;2022-09-09T16:48:39;15.40;73.50
14798;DHT22;7490;63.708;20.368;2022-09-09T16:51:07;15.40;73.70
14798;DHT22;7490;63.708;20.368;2022-09-09T16:53:34;15.40;73.90
14798;DHT22;7490;63.708;20.368;2022-09-09T16:56:07;15.30;74.00
14798;DHT22;7490;63.708;20.368;2022-09-09T16:58:33;15.30;74.50
14798;DHT22;7490;63.708;20.368;2022-09-09T17:01:00;15.30;74.60
14798;DHT22;7490;63.708;20.368;2022-09-09T17:03:27;15.20;74.70
14798;DHT22;7490;63.708;20.368;2022-09-09T17:05:53;15.20;75.00
14798;DHT22;7490;63.708;20.368;2022-09-09T17:08:18;15.20;75.30
14798;DHT22;7490;63.708;20.368;2022-09-09T17:10:44;15.10;75.40
14798;DHT22;7490;63.708;20.368;2022-09-09T17:13:10;15.10;75.60
14798;DHT22;7490;63.708;20.368;2022-09-09T17:15:42;15.10;75.80
14798;DHT22;7490;63.708;20.368;2022-09-09T17:18:09;15.00;76.00
14798;DHT22;7490;63.708;20.368;2022-09-09T17:20:39;15.00;76.40
14798;DHT22;7490;63.708;20.368;2022-09-09T17:23:09;15.00;76.60
14798;DHT22;7490;63.708;20.368;2022-09-09T17:25:36;14.90;76.70
14798;DHT22;7490;63.708;20.368;2022-09-09T17:28:03;14.90;77.00
14798;DHT22;7490;63.708;20.368;2022-09-09T17:30:35;14.90;77.30
14798;DHT22;7490;63.708;20.368;2022-09-09T17:33:04;14.80;77.30
14798;DHT22;7490;63.708;20.368;2022-09-09T17:35:32;14.80;77.50
14798;DHT22;7490;63.708;20.368;2022-09-09T17:37:58;14.80;77.90
14798;DHT22;7490;63.708;20.368;2022-09-09T17:40:24;14.80;78.20
14798;DHT22;7490;63.708;20.368;2022-09-09T17:42:50;14.80;78.40
14798;DHT22;7490;63.708;20.368;2022-09-09T17:45:15;14.70;78.70
14798;DHT22;7490;63.708;20.368;2022-09-09T17:47:41;14.70;79.00
14798;DHT22;7490;63.708;20.368;2022-09-09T17:50:09;14.70;79.20
14798;DHT22;7490;63.708;20.368;2022-09-09T17:52:36;14.70;79.50
14798;DHT22;7490;63.708;20.368;2022-09-09T17:55:03;14.60;79.50
14798;DHT22;7490;63.708;20.368;2022-09-09T17:57:29;14.60;79.70
14798;DHT22;7490;63.708;20.368;2022-09-09T17:59:55;14.60;79.80
14798;DHT22;7490;63.708;20.368;2022-09-09T18:02:21;14.60;79.90
14798;DHT22;7490;63.708;20.368;2022-09-09T18:04:46;14.50;80.00
14798;DHT22;7490;63.708;20.368;2022-09-09T18:07:12;14.50;80.20
14798;DHT22;7490;63.708;20.368;2022-09-09T18:09:38;14.50;80.10
14798;DHT22;7490;63.708;20.368;2022-09-09T18:12:05;14.50;80.30
14798;DHT22;7490;63.708;20.368;2022-09-09T18:14:32;14.50;80.40
14798;DHT22;7490;63.708;20.368;2022-09-09T18:16:59;14.50;80.70
14798;DHT22;7490;63.708;20.368;2022-09-09T18:19:27;14.50;80.90